Time;durP1;ratioP1;P1;durP2;ratioP2;P2;SDS_P1;SDS_P2;PMS_P1;PMS_P2;Temp;Humidity;BMP_temperature;BMP_pressure;BME280_temperature;BME280_humidity;BME280_pressure;Samples;Min_cycle;Max_cycle;Signal;HPM_P1;HPM_P2
2023/10/02 00:02:42;;;;;;;0.00;0.00;;;;;;;16.73;100.00;100746.88;4866025;29;20029;-73
2023/10/02 00:05:08;;;;;;;0.00;0.00;;;;;;;16.72;100.00;100725.94;4879715;29;20042;-76
2023/10/02 00:07:38;;;;;;;0.00;0.00;;;;;;;17.03;100.00;100748.38;4865928;29;20029;-76
2023/10/02 00:10:05;;;;;;;0.00;0.00;;;;;;;17.20;100.00;100753.34;4873506;29;20436;-75
2023/10/02 00:12:34;;;;;;;0.00;0.00;;;;;;;17.17;100.00;100737.38;4866468;29;20410;-75
2023/10/02 00:15:12;;;;;;;0.00;0.00;;;;;;;17.12;100.00;100734.69;4858019;29;20030;-75
2023/10/02 00:17:37;;;;;;;0.00;0.00;;;;;;;17.10;100.00;100731.44;4863355;29;20052;-75
2023/10/02 00:20:14;;;;;;;0.00;0.00;;;;;;;17.09;100.00;100735.31;4870234;29;20029;-74
2023/10/02 00:22:42;;;;;;;0.00;0.00;;;;;;;17.08;100.00;100744.72;4848708;29;20041;-74
2023/10/02 00:25:22;;;;;;;0.00;0.00;;;;;;;17.08;100.00;100750.22;4835694;29;20033;-76
2023/10/02 00:27:51;;;;;;;0.00;0.00;;;;;;;16.99;100.00;100747.34;4871523;29;20128;-74
2023/10/02 00:30:20;;;;;;;0.00;0.00;;;;;;;17.06;100.00;100749.72;4864707;29;20092;-75
2023/10/02 00:32:47;;;;;;;0.00;0.00;;;;;;;17.04;100.00;100738.13;4870536;29;20104;-75
2023/10/02 00:35:14;;;;;;;0.00;0.00;;;;;;;17.01;100.00;100739.59;4866520;29;20108;-75
2023/10/02 00:37:44;;;;;;;0.00;0.00;;;;;;;16.99;100.00;100729.94;4878366;29;20064;-75
2023/10/02 00:40:20;;;;;;;0.00;0.00;;;;;;;16.99;100.00;100741.00;4834641;29;20143;-75
2023/10/02 00:42:48;;;;;;;0.00;0.00;;;;;;;17.03;100.00;100739.28;4872216;29;20028;-75
2023/10/02 00:45:16;;;;;;;0.00;0.00;;;;;;;17.04;100.00;100732.63;4852638;29;20037;-74
2023/10/02 00:47:41;;;;;;;0.00;0.00;;;;;;;16.95;100.00;100726.16;4870611;29;20033;-75
2023/10/02 00:50:20;;;;;;;0.00;0.00;;;;;;;17.01;100.00;100744.28;4870794;29;20071;-73
2023/10/02 00:53:04;;;;;;;0.00;0.00;;;;;;;16.96;100.00;100736.09;4866370;29;20044;-73
2023/10/02 00:55:33;;;;;;;0.00;0.00;;;;;;;16.99;100.00;100741.00;4849910;29;20039;-74
2023/10/02 00:58:01;;;;;;;0.00;0.00;;;;;;;17.00;100.00;100737.13;4854737;29;20024;-74
2023/10/02 01:00:35;;;;;;;0.00;0.00;;;;;;;16.97;100.00;100734.94;4852867;29;20024;-74
2023/10/02 01:03:04;;;;;;;0.00;0.00;;;;;;;16.93;100.00;100721.75;4872131;29;20053;-74
2023/10/02 01:05:41;;;;;;;0.00;0.00;;;;;;;16.96;100.00;100731.38;4877081;29;20032;-73
2023/10/02 01:08:23;;;;;;;0.00;0.00;;;;;;;16.96;100.00;100731.38;4874038;29;20049;-74
2023/10/02 01:10:56;;;;;;;0.00;0.00;;;;;;;16.92;100.00;100739.44;4850680;29;20520;-73
2023/10/02 01:13:32;;;;;;;0.00;0.00;;;;;;;16.89;100.00;100744.75;4870844;29;20025;-73
2023/10/02 01:16:00;;;;;;;0.00;0.00;;;;;;;16.89;100.00;100741.97;4866549;29;20067;-74
2023/10/02 01:18:29;;;;;;;0.00;0.00;;;;;;;16.86;100.00;100737.84;4870867;29;20417;-74
2023/10/02 01:20:59;;;;;;;0.00;0.00;;;;;;;16.88;100.00;100746.69;4868675;29;20025;-74
2023/10/02 01:23:31;;;;;;;0.00;0.00;;;;;;;16.83;100.00;100732.91;4839488;29;20077;-73
2023/10/02 01:25:58;;;;;;;0.00;0.00;;;;;;;16.86;100.00;100729.56;4872885;29;20036;-73
2023/10/02 01:28:51;;;;;;;0.00;0.00;;;;;;;16.85;100.00;100729.84;4854828;29;20035;-74
2023/10/02 01:31:42;;;;;;;0.00;0.00;;;;;;;16.87;100.00;100716.59;4862963;29;20384;-74
2023/10/02 01:34:04;;;;;;;0.00;0.00;;;;;;;16.91;100.00;100728.72;4857621;29;20455;-74
2023/10/02 01:36:32;;;;;;;0.00;0.00;;;;;;;16.89;100.00;100729.00;4855005;29;20048;-73
2023/10/02 01:39:15;;;;;;;0.00;0.00;;;;;;;16.91;100.00;100728.72;4826014;29;20049;-74
2023/10/02 01:41:41;;;;;;;0.00;0.00;;;;;;;16.89;100.00;100737.31;4870036;29;20029;-74
2023/10/02 01:44:11;;;;;;;0.00;0.00;;;;;;;16.89;100.00;100730.94;4867436;29;20035;-74
2023/10/02 01:46:50;;;;;;;0.00;0.00;;;;;;;16.86;100.00;100729.56;4872513;29;20026;-74
2023/10/02 01:49:26;;;;;;;0.00;0.00;;;;;;;16.90;100.00;100736.16;4867634;29;20204;-73
2023/10/02 01:51:55;;;;;;;0.00;0.00;;;;;;;16.90;100.00;100741.69;4855385;29;20041;-74
2023/10/02 01:54:22;;;;;;;0.00;0.00;;;;;;;16.86;100.00;100735.06;4868423;29;20029;-73
2023/10/02 01:56:48;;;;;;;0.00;0.00;;;;;;;16.87;100.00;100722.94;4855659;29;20037;-75
2023/10/02 01:59:19;;;;;;;0.00;0.00;;;;;;;16.84;100.00;100720.75;4850317;29;20051;-76
2023/10/02 02:01:51;;;;;;;0.00;0.00;;;;;;;16.81;100.00;100702.03;4834106;29;20461;-75
2023/10/02 02:04:32;;;;;;;0.00;0.00;;;;;;;16.79;100.00;100709.78;4874280;29;20029;-74
2023/10/02 02:07:00;;;;;;;0.00;0.00;;;;;;;16.79;100.00;100720.84;4875957;29;20108;-72
2023/10/02 02:09:33;;;;;;;0.00;0.00;;;;;;;16.81;100.00;100723.31;4868717;29;20108;-74
2023/10/02 02:12:07;;;;;;;0.00;0.00;;;;;;;16.77;100.00;100723.09;4877073;29;20083;-74
2023/10/02 02:14:52;;;;;;;;;;;;;;;16.81;100.00;100726.91;4882378;29;20025;-74
2023/10/02 02:17:19;;;;;;;0.00;0.00;;;;;;;16.81;100.00;100724.13;4851170;29;19912;-73
2023/10/02 02:19:48;;;;;;;0.00;0.00;;;;;;;16.77;100.00;100706.50;4830988;29;20168;-74
2023/10/02 02:22:17;;;;;;;0.00;0.00;;;;;;;16.75;100.00;100704.06;4841509;29;20044;-74
2023/10/02 02:24:47;;;;;;;0.00;0.00;;;;;;;16.72;100.00;100712.13;4871004;29;20032;-75
2023/10/02 02:27:19;;;;;;;0.00;0.00;;;;;;;16.67;100.00;100712.19;4871316;29;20024;-74
2023/10/02 02:29:46;;;;;;;0.00;0.00;;;;;;;16.62;100.00;100706.75;4851771;29;20045;-73
2023/10/02 02:32:11;;;;;;;0.00;0.00;;;;;;;16.61;100.00;100718.94;4860738;29;20032;-74
2023/10/02 02:34:37;;;;;;;0.00;0.00;;;;;;;16.61;100.00;100713.41;4839133;29;20029;-74
2023/10/02 02:37:06;;;;;;;0.00;0.00;;;;;;;16.61;100.00;100702.38;4853997;29;20025;-75
2023/10/02 02:39:37;;;;;;;0.00;0.00;;;;;;;16.62;100.00;100720.56;4840357;29;20052;-74
2023/10/02 02:42:09;;;;;;;0.00;0.00;;;;;;;16.66;100.00;100721.59;4857300;29;20029;-74
2023/10/02 02:44:40;;;;;;;0.00;0.00;;;;;;;16.67;100.00;100715.78;4873564;29;20039;-74
2023/10/02 02:47:08;;;;;;;0.00;0.00;;;;;;;16.69;100.00;100721.00;4854734;29;20357;-73
2023/10/02 02:49:58;;;;;;;0.00;0.00;;;;;;;16.66;100.00;100716.06;4852867;29;20161;-73
2023/10/02 02:52:33;;;;;;;0.00;0.00;;;;;;;16.64;100.00;100708.09;4854163;29;20624;-73
2023/10/02 02:55:12;;;;;;;0.00;0.00;;;;;;;16.60;100.00;100700.72;4825831;29;20029;-73
2023/10/02 02:57:39;;;;;;;0.00;0.00;;;;;;;16.55;100.00;100688.63;4850140;29;20414;-73
2023/10/02 03:02:54;;;;;;;0.00;0.00;;;;;;;16.58;100.00;100693.53;4867733;29;20507;-74
2023/10/02 03:05:22;;;;;;;0.00;0.00;;;;;;;16.55;100.00;100688.63;4852339;29;20084;-74
2023/10/02 03:07:54;;;;;;;0.00;0.00;;;;;;;16.56;100.00;100690.28;4845202;29;20120;-75
2023/10/02 03:10:23;;;;;;;0.00;0.00;;;;;;;16.58;100.00;100698.25;4857377;29;20108;-74
2023/10/02 03:12:49;;;;;;;0.00;0.00;;;;;;;16.56;100.00;100701.31;4857926;29;20037;-74
2023/10/02 03:15:17;;;;;;;0.00;0.00;;;;;;;16.60;100.00;100697.97;4830894;29;20032;-74
2023/10/02 03:17:48;;;;;;;0.00;0.00;;;;;;;16.58;100.00;100707.34;4872235;29;20177;-74
2023/10/02 03:20:23;;;;;;;0.00;0.00;;;;;;;16.58;100.00;100698.25;4837924;29;20165;-72
2023/10/02 03:22:54;;;;;;;0.00;0.00;;;;;;;16.58;100.00;100689.97;4854648;29;20033;-75
2023/10/02 03:27:51;;;;;;;0.00;0.00;;;;;;;16.57;100.00;100691.94;4871217;29;20059;-73
2023/10/02 03:30:35;;;;;;;0.00;0.00;;;;;;;16.57;100.00;100691.94;4849392;29;20388;-74
2023/10/02 03:33:16;;;;;;;0.00;0.00;;;;;;;16.56;100.00;100695.00;4850953;29;20033;-74
2023/10/02 03:35:42;;;;;;;0.00;0.00;;;;;;;16.60;100.00;100690.47;4852680;29;20068;-75
2023/10/02 03:38:07;;;;;;;0.00;0.00;;;;;;;16.60;100.00;100673.91;4846783;29;20068;-74
2023/10/02 03:40:34;;;;;;;0.00;0.00;;;;;;;16.63;100.00;100670.59;4852240;29;20029;-74
2023/10/02 03:43:18;;;;;;;0.00;0.00;;;;;;;16.61;100.00;100658.19;4869145;29;20950;-74
2023/10/02 03:45:45;;;;;;;0.00;0.00;;;;;;;16.58;100.00;100665.94;4867372;29;20043;-74
2023/10/02 03:48:10;;;;;;;0.00;0.00;;;;;;;16.54;100.00;100664.94;4866420;29;20484;-74
2023/10/02 03:50:38;;;;;;;0.00;0.00;;;;;;;16.52;100.00;100671.84;4871743;29;20073;-74
2023/10/02 03:53:12;;;;;;;0.00;0.00;;;;;;;16.50;100.00;100677.69;4874429;29;20228;-73
2023/10/02 03:55:39;;;;;;;0.00;0.00;;;;;;;16.49;100.00;100661.41;4864823;29;20025;-73
2023/10/02 03:58:06;;;;;;;0.00;0.00;;;;;;;16.47;100.00;100649.84;4859283;29;20177;-74
2023/10/02 04:00:43;;;;;;;0.00;0.00;;;;;;;16.47;100.00;100655.38;4849017;29;20033;-74
2023/10/02 04:03:09;;;;;;;0.00;0.00;;;;;;;16.43;100.00;100668.97;4872442;29;20153;-74
2023/10/02 04:05:44;;;;;;;0.00;0.00;;;;;;;16.48;100.00;100677.16;4869386;29;20053;-73
2023/10/02 04:10:57;;;;;;;0.00;0.00;;;;;;;16.49;100.00;100667.75;4872203;29;20226;-74
2023/10/02 04:13:25;;;;;;;0.00;0.00;;;;;;;16.53;100.00;100676.28;4864990;29;20447;-74
2023/10/02 04:16:28;;;;;;;0.00;0.00;;;;;;;16.51;100.00;100665.50;4869048;29;20032;-74
2023/10/02 04:18:46;;;;;;;0.00;0.00;;;;;;;16.51;100.00;100676.53;4864558;29;20128;-75
2023/10/02 04:21:25;;;;;;;0.00;0.00;;;;;;;16.49;100.00;100662.22;4870438;29;20037;-75
2023/10/02 04:23:53;;;;;;;0.00;0.00;;;;;;;16.40;100.00;100662.09;4873468;29;20051;-74
2023/10/02 04:26:20;;;;;;;0.00;0.00;;;;;;;16.46;100.00;100679.41;4877180;29;20041;-74
2023/10/02 04:28:55;;;;;;;0.00;0.00;;;;;;;16.44;100.00;100676.13;4872277;29;20033;-75
2023/10/02 04:31:27;;;;;;;0.00;0.00;;;;;;;16.43;100.00;100663.44;4880178;29;20033;-74
2023/10/02 04:34:46;;;;;;;0.00;0.00;;;;;;;16.47;100.00;100664.47;4874296;29;20418;-75
2023/10/02 04:36:43;;;;;;;0.00;0.00;;;;;;;16.48;100.00;100652.31;4865276;29;20129;-74
2023/10/02 04:44:44;;;;;;;0.00;0.00;;;;;;;16.54;100.00;100642.84;4870935;29;20037;-75
2023/10/02 04:47:09;;;;;;;;;;;;;;;16.58;100.00;100641.09;4842964;29;20495;-76
2023/10/02 04:49:59;;;;;;;0.00;0.00;;;;;;;16.60;100.00;100628.94;4841149;29;19916;-75
2023/10/02 04:52:37;;;;;;;0.00;0.00;;;;;;;16.62;100.00;100638.56;4835779;29;20547;-76
2023/10/02 04:55:07;;;;;;;0.00;0.00;;;;;;;16.60;100.00;100623.41;4851630;29;20578;-74
2023/10/02 04:57:34;;;;;;;0.00;0.00;;;;;;;16.60;100.00;100624.22;4858583;29;20038;-76
2023/10/02 05:00:01;;;;;;;0.00;0.00;;;;;;;16.61;100.00;100630.59;4838433;29;20140;-75
2023/10/02 05:02:26;;;;;;;0.00;0.00;;;;;;;16.57;100.00;100630.34;4860037;29;20029;-76
2023/10/02 05:04:56;;;;;;;0.00;0.00;;;;;;;16.56;100.00;100640.59;4853231;29;21106;-75
2023/10/02 05:07:22;;;;;;;0.00;0.00;;;;;;;16.55;100.00;100647.22;4838864;29;20037;-76
2023/10/02 05:09:49;;;;;;;0.00;0.00;;;;;;;16.52;100.00;100634.03;4852610;29;20053;-75
2023/10/02 05:12:22;;;;;;;0.00;0.00;;;;;;;16.50;100.00;100636.28;4838910;29;20025;-75
2023/10/02 05:14:51;;;;;;;0.00;0.00;;;;;;;16.46;100.00;100635.22;4826213;29;20045;-74
2023/10/02 05:17:17;;;;;;;0.00;0.00;;;;;;;16.42;100.00;100625.91;4872380;29;21361;-74
2023/10/02 05:22:31;;;;;;;0.00;0.00;;;;;;;16.36;100.00;100629.88;4871094;29;20071;-75
2023/10/02 05:25:00;;;;;;;0.00;0.00;;;;;;;16.35;100.00;100628.22;4869392;29;20025;-75
2023/10/02 05:27:29;;;;;;;0.00;0.00;;;;;;;16.33;100.00;100630.47;4872000;29;20047;-74
2023/10/02 05:29:58;;;;;;;0.00;0.00;;;;;;;16.29;100.00;100640.47;4851073;29;20060;-73
2023/10/02 05:32:24;;;;;;;0.00;0.00;;;;;;;16.24;100.00;100638.63;4833766;29;20029;-73
2023/10/02 05:37:41;;;;;;;0.00;0.00;;;;;;;16.25;100.00;100639.44;4872497;29;20039;-74
2023/10/02 05:45:39;;;;;;;0.00;0.00;;;;;;;16.23;100.00;100651.56;4847971;29;20021;-75
2023/10/02 05:48:12;;;;;;;0.00;0.00;;;;;;;16.22;100.00;100652.72;4846624;29;20037;-73
2023/10/02 05:50:40;;;;;;;0.00;0.00;;;;;;;16.23;100.00;100640.53;4840363;29;20041;-73
2023/10/02 05:53:06;;;;;;;0.00;0.00;;;;;;;16.28;100.00;100650.69;4831917;29;20036;-72
2023/10/02 05:55:56;;;;;;;0.00;0.00;;;;;;;16.26;100.00;100635.56;4835672;29;20029;-72
2023/10/02 05:58:31;;;;;;;0.00;0.00;;;;;;;16.29;100.00;100646.81;4843554;29;20128;-73
2023/10/02 06:01:04;;;;;;;0.00;0.00;;;;;;;16.29;100.00;100638.53;4845905;29;20121;-71
2023/10/02 06:03:37;;;;;;;0.00;0.00;;;;;;;16.26;100.00;100630.84;4844047;29;20051;-75
2023/10/02 06:06:18;;;;;;;0.00;0.00;;;;;;;16.25;100.00;100633.91;4847214;29;20025;-72
2023/10/02 06:09:12;;;;;;;0.00;0.00;;;;;;;16.22;100.00;100629.81;4857491;29;20030;-75
2023/10/02 06:11:59;;;;;;;0.00;0.00;;;;;;;16.17;100.00;100627.94;4852609;29;20082;-72
2023/10/02 06:14:25;;;;;;;0.00;0.00;;;;;;;16.16;100.00;100640.09;4849215;29;20888;-73
2023/10/02 06:16:52;;;;;;;0.00;0.00;;;;;;;16.18;100.00;100637.88;4848368;29;20033;-73
2023/10/02 06:19:18;;;;;;;0.00;0.00;;;;;;;16.19;100.00;100636.75;4847204;29;20088;-73
2023/10/02 06:21:45;;;;;;;0.00;0.00;;;;;;;16.20;100.00;100634.81;4849680;29;20403;-73
2023/10/02 06:24:12;;;;;;;0.00;0.00;;;;;;;16.28;100.00;100633.31;4848124;29;20067;-74
2023/10/02 06:26:49;;;;;;;0.00;0.00;;;;;;;16.34;100.00;100643.13;4854699;29;20038;-73
2023/10/02 06:29:22;;;;;;;0.00;0.00;;;;;;;16.36;100.00;100640.91;4844936;29;20041;-72
2023/10/02 06:31:58;;;;;;;0.00;0.00;;;;;;;16.43;100.00;100635.84;4847970;29;20086;-72
2023/10/02 06:34:25;;;;;;;0.00;0.00;;;;;;;16.52;100.00;100638.75;4848241;29;20021;-71
2023/10/02 06:37:07;;;;;;;0.00;0.00;;;;;;;16.57;100.00;100642.25;4839970;29;20037;-72
2023/10/02 06:39:35;;;;;;;0.00;0.00;;;;;;;16.65;100.00;100642.66;4843979;29;20120;-72
2023/10/02 06:42:05;;;;;;;0.00;0.00;;;;;;;16.67;100.00;100618.31;4835261;29;20372;-71
2023/10/02 06:44:34;;;;;;;0.00;0.00;;;;;;;16.69;100.00;100635.41;4852616;29;20130;-72
2023/10/02 06:47:04;;;;;;;0.00;0.00;;;;;;;16.67;100.00;100632.13;4848066;29;20059;-73
2023/10/02 06:49:30;;;;;;;0.00;0.00;;;;;;;16.73;100.00;100628.16;4849819;29;20033;-73
2023/10/02 06:52:11;;;;;;;0.00;0.00;;;;;;;16.74;100.00;100619.56;4851610;29;20033;-73
2023/10/02 06:54:42;;;;;;;0.00;0.00;;;;;;;16.82;100.00;100637.41;4854772;29;20428;-72
2023/10/02 06:57:11;;;;;;;0.00;0.00;;;;;;;16.88;100.00;100638.97;4842793;29;20047;-73
2023/10/02 06:59:53;;;;;;;0.00;0.00;;;;;;;16.93;100.00;100629.78;4869501;29;20052;-72
2023/10/02 07:02:25;;;;;;;0.00;0.00;;;;;;;16.94;100.00;100628.66;4846616;29;20048;-75
2023/10/02 07:04:52;;;;;;;0.00;0.00;;;;;;;16.93;100.00;100638.88;4873607;29;20119;-73
2023/10/02 07:07:25;;;;;;;0.00;0.00;;;;;;;16.88;100.00;100627.94;4840871;29;20033;-73
2023/10/02 07:10:00;;;;;;;0.00;0.00;;;;;;;16.70;100.00;100604.72;4872695;29;20472;-74
2023/10/02 07:12:27;;;;;;;0.00;0.00;;;;;;;16.81;100.00;100621.16;4859506;29;20119;-73
2023/10/02 07:15:10;;;;;;;0.00;0.00;;;;;;;16.87;100.00;100622.69;4834815;29;20373;-72
2023/10/02 07:17:38;;;;;;;0.00;0.00;;;;;;;16.92;100.00;100619.84;4865394;29;20049;-73
2023/10/02 07:20:11;;;;;;;0.00;0.00;;;;;;;16.90;100.00;100608.28;4869377;29;20084;-74
2023/10/02 07:22:37;;;;;;;0.00;0.00;;;;;;;17.11;100.00;100622.53;4855877;29;20064;-72
2023/10/02 07:25:04;;;;;;;0.00;0.00;;;;;;;17.02;100.00;100618.84;4865633;29;20534;-72
2023/10/02 07:27:31;;;;;;;0.00;0.00;;;;;;;17.10;100.00;100637.50;4855742;29;20064;-72
2023/10/02 07:29:58;;;;;;;0.00;0.00;;;;;;;17.13;100.00;100634.13;4833688;29;20064;-72
2023/10/02 07:32:29;;;;;;;0.00;0.00;;;;;;;17.06;100.00;100620.69;4874915;29;20036;-73
2023/10/02 07:35:09;;;;;;;0.00;0.00;;;;;;;17.05;100.00;100632.84;4866581;29;20108;-73
2023/10/02 07:37:36;;;;;;;0.00;0.00;;;;;;;17.19;100.00;100641.19;4867323;29;20432;-72
2023/10/02 07:40:06;;;;;;;0.00;0.00;;;;;;;17.22;100.00;100629.50;4848622;29;20089;-73
2023/10/02 07:42:33;;;;;;;0.00;0.00;;;;;;;17.34;100.00;100629.00;4852604;29;20065;-71
2023/10/02 07:45:11;;;;;;;0.00;0.00;;;;;;;17.47;100.00;100635.66;4835247;29;20037;-72
2023/10/02 07:47:55;;;;;;;0.00;0.00;;;;;;;17.66;100.00;100637.50;4853754;29;20048;-72
2023/10/02 07:50:33;;;;;;;0.00;0.00;;;;;;;17.84;100.00;100639.31;4842169;29;20037;-72
2023/10/02 07:53:04;;;;;;;0.00;0.00;;;;;;;17.89;100.00;100635.63;4862514;29;20072;-72
2023/10/02 07:55:31;;;;;;;0.00;0.00;;;;;;;17.75;100.00;100625.38;4849427;29;20037;-73
2023/10/02 07:58:00;;;;;;;0.00;0.00;;;;;;;17.65;100.00;100627.56;4868818;29;20029;-73
2023/10/02 08:00:33;;;;;;;0.00;0.00;;;;;;;17.75;100.00;100632.88;4869217;29;20040;-72
2023/10/02 08:03:02;;;;;;;0.00;0.00;;;;;;;17.84;100.00;100628.25;4845484;29;20428;-72
2023/10/02 08:05:28;;;;;;;0.00;0.00;;;;;;;17.91;100.00;100644.47;4866808;29;20487;-73
2023/10/02 08:08:08;;;;;;;0.00;0.00;;;;;;;17.93;100.00;100651.31;4833634;29;20037;-73
2023/10/02 08:10:49;;;;;;;0.00;0.00;;;;;;;17.86;100.00;100645.34;4851321;29;20064;-73
2023/10/02 08:13:16;;;;;;;0.00;0.00;;;;;;;17.92;100.00;100646.91;4869185;29;20713;-73
2023/10/02 08:15:44;;;;;;;0.00;0.00;;;;;;;17.91;100.00;100650.81;4849296;29;20037;-71
2023/10/02 08:18:19;;;;;;;0.00;0.00;;;;;;;17.81;100.00;100651.00;4867490;29;20040;-72
2023/10/02 08:20:45;;;;;;;0.00;0.00;;;;;;;17.75;100.00;100647.50;4867723;29;20139;-72
2023/10/02 08:23:21;;;;;;;0.00;0.00;;;;;;;17.86;100.00;100648.13;4833383;29;20037;-72
2023/10/02 08:26:00;;;;;;;0.00;0.00;;;;;;;17.98;100.00;100655.13;4853357;29;20033;-71
2023/10/02 08:28:28;;;;;;;0.00;0.00;;;;;;;18.03;100.00;100652.22;4847722;29;20492;-72
2023/10/02 08:30:59;;;;;;;0.00;0.00;;;;;;;18.18;99.81;100660.19;4840185;29;20377;-72
2023/10/02 08:33:26;;;;;;;0.00;0.00;;;;;;;18.13;98.75;100640.91;4865525;29;20020;-73
2023/10/02 08:36:09;;;;;;;0.00;0.00;;;;;;;18.18;98.49;100651.88;4837114;29;20024;-73
2023/10/02 08:38:36;;;;;;;0.00;0.00;;;;;;;18.15;98.10;100635.91;4866728;29;21230;-72
2023/10/02 08:41:06;;;;;;;0.00;0.00;;;;;;;18.43;97.80;100644.13;4854814;29;20033;-73
2023/10/02 08:43:32;;;;;;;0.00;0.00;;;;;;;18.66;96.16;100642.97;4862516;29;20031;-73
2023/10/02 08:46:01;;;;;;;0.00;0.00;;;;;;;18.86;95.74;100631.69;4869036;29;20055;-73
2023/10/02 08:48:31;;;;;;;0.00;0.00;;;;;;;18.94;95.44;100636.47;4841830;29;20121;-73
2023/10/02 08:50:58;;;;;;;0.00;0.00;;;;;;;19.06;95.09;100610.97;4849805;29;20049;-71
2023/10/02 08:53:24;;;;;;;0.00;0.00;;;;;;;19.43;93.76;100608.81;4866744;29;20097;-70
2023/10/02 08:56:10;;;;;;;0.00;0.00;;;;;;;19.74;92.61;100624.56;4851069;29;20684;-72
2023/10/02 08:58:39;;;;;;;0.00;0.00;;;;;;;19.83;91.26;100626.25;4851403;29;20394;-73
2023/10/02 09:03:41;;;;;;;0.00;0.00;;;;;;;19.81;88.40;100624.94;4848405;29;20033;-71
2023/10/02 09:06:25;;;;;;;0.00;0.00;;;;;;;19.47;90.00;100615.38;4847419;29;20025;-73
2023/10/02 09:11:41;;;;;;;0.00;0.00;;;;;;;19.44;91.37;100618.78;4848619;29;20180;-73
2023/10/02 09:16:45;;;;;;;0.00;0.00;;;;;;;19.57;89.78;100617.84;4857982;29;20028;-72
2023/10/02 09:19:30;;;;;;;0.00;0.00;;;;;;;19.47;90.24;100610.63;4849212;29;20036;-73
2023/10/02 09:22:10;;;;;;;0.00;0.00;;;;;;;19.43;89.30;100608.81;4851774;29;20033;-73
2023/10/02 09:25:13;;;;;;;0.00;0.00;;;;;;;19.25;87.86;100608.75;4840988;29;20108;-72
2023/10/02 09:27:30;;;;;;;0.00;0.00;;;;;;;19.08;89.16;100615.03;4851730;29;20554;-72
2023/10/02 09:30:19;;;;;;;0.00;0.00;;;;;;;19.22;90.03;100609.41;4851239;29;20037;-72
2023/10/02 09:32:50;;;;;;;0.00;0.00;;;;;;;19.47;89.61;100602.31;4851152;29;20033;-71
2023/10/02 09:35:32;;;;;;;0.00;0.00;;;;;;;19.66;88.14;100613.13;4843578;29;20033;-75
2023/10/02 09:38:10;;;;;;;0.00;0.00;;;;;;;19.78;87.41;100597.81;4865859;29;20052;-73
2023/10/02 09:43:28;;;;;;;0.00;0.00;;;;;;;19.94;85.71;100601.75;4867958;29;20032;-74
2023/10/02 09:46:05;;;;;;;0.00;0.00;;;;;;;19.81;86.32;100608.28;4871668;29;20036;-73
2023/10/02 09:48:52;;;;;;;0.00;0.00;;;;;;;19.73;85.05;100603.50;4848353;29;20064;-73
2023/10/02 09:51:30;;;;;;;0.00;0.00;;;;;;;19.55;85.82;100611.78;4872825;29;20057;-72
2023/10/02 09:54:06;;;;;;;0.00;0.00;;;;;;;19.49;85.92;100601.97;4863273;29;20111;-72
2023/10/02 09:56:51;;;;;;;0.00;0.00;;;;;;;19.39;86.82;100591.19;4868058;29;20029;-71
2023/10/02 09:59:17;;;;;;;0.00;0.00;;;;;;;19.34;87.45;100581.88;4845013;29;20048;-74
2023/10/02 10:02:18;;;;;;;0.00;0.00;;;;;;;19.46;87.45;100586.00;4852471;29;20033;-72
2023/10/02 10:08:18;;;;;;;0.00;0.00;;;;;;;19.12;88.10;100580.00;4856590;29;20040;-73
2023/10/02 10:10:48;;;;;;;0.00;0.00;;;;;;;19.05;88.62;100571.34;4864804;29;20045;-73
2023/10/02 10:13:37;;;;;;;0.00;0.00;;;;;;;19.21;89.04;100571.72;4869711;29;20029;-73
2023/10/02 10:16:20;;;;;;;0.00;0.00;;;;;;;19.43;88.47;100570.81;4861556;29;20532;-73
2023/10/02 10:21:56;;;;;;;0.00;0.00;;;;;;;20.14;85.13;100566.19;4867530;29;20032;-73
2023/10/02 10:24:51;;;;;;;0.00;0.00;;;;;;;20.49;85.03;100566.16;4846601;29;20044;-73
2023/10/02 10:27:42;;;;;;;0.00;0.00;;;;;;;20.89;82.72;100563.13;4872506;29;20033;-72
2023/10/02 10:30:27;;;;;;;0.00;0.00;;;;;;;20.72;81.36;100555.63;4871163;29;20024;-71
2023/10/02 10:35:34;;;;;;;0.00;0.00;;;;;;;20.22;81.68;100540.38;4874226;29;20472;-72
2023/10/02 10:38:03;;;;;;;0.00;0.00;;;;;;;20.17;82.65;100546.09;4853361;29;20105;-72
2023/10/02 10:40:44;;;;;;;0.00;0.00;;;;;;;20.11;83.23;100531.56;4826756;29;20120;-73
2023/10/02 10:43:18;;;;;;;0.00;0.00;;;;;;;20.20;83.08;100531.56;4868640;29;20032;-71
2023/10/02 10:45:48;;;;;;;0.00;0.00;;;;;;;20.14;82.07;100538.44;4869675;29;20072;-72
2023/10/02 10:48:23;;;;;;;0.00;0.00;;;;;;;20.13;82.08;100528.47;4867722;29;20028;-71
2023/10/02 10:50:59;;;;;;;0.00;0.00;;;;;;;19.90;82.15;100534.19;4869551;29;20036;-73
2023/10/02 10:53:32;;;;;;;0.00;0.00;;;;;;;19.93;83.02;100530.78;4848743;29;20566;-72
2023/10/02 10:56:18;;;;;;;0.00;0.00;;;;;;;20.15;82.97;100528.94;4842126;29;20044;-72
2023/10/02 10:58:44;;;;;;;0.00;0.00;;;;;;;20.28;81.25;100524.34;4870654;29;20037;-73
2023/10/02 11:01:16;;;;;;;0.00;0.00;;;;;;;20.43;81.47;100528.56;4837786;29;20041;-72
2023/10/02 11:03:43;;;;;;;0.00;0.00;;;;;;;20.62;80.94;100520.69;4840482;29;20062;-74
2023/10/02 11:06:10;;;;;;;0.00;0.00;;;;;;;20.77;80.12;100521.31;4836343;29;20041;-71
2023/10/02 11:08:40;;;;;;;0.00;0.00;;;;;;;20.91;80.13;100522.72;4856979;29;20041;-73
2023/10/02 11:11:18;;;;;;;0.00;0.00;;;;;;;21.01;80.48;100520.72;4866541;29;20559;-72
2023/10/02 11:13:51;;;;;;;0.00;0.00;;;;;;;21.13;79.55;100525.56;4862126;29;20050;-72
2023/10/02 11:16:36;;;;;;;0.00;0.00;;;;;;;21.20;79.34;100528.63;4865465;29;20037;-72
2023/10/02 11:19:23;;;;;;;0.00;0.00;;;;;;;21.25;79.31;100531.22;4870754;29;20032;-71
2023/10/02 11:22:15;;;;;;;0.00;0.00;;;;;;;21.15;78.82;100526.06;4861626;29;20056;-72
2023/10/02 11:24:44;;;;;;;0.00;0.00;;;;;;;21.09;78.44;100523.44;4863428;29;20051;-73
2023/10/02 11:27:17;;;;;;;0.00;0.00;;;;;;;21.09;79.09;100515.09;4874281;29;20372;-72
2023/10/02 11:30:03;;;;;;;0.00;0.00;;;;;;;21.15;78.58;100514.94;4853950;29;20119;-73
2023/10/02 11:32:48;;;;;;;0.00;0.00;;;;;;;21.24;78.66;100518.47;4854497;29;20025;-73
2023/10/02 11:35:17;;;;;;;0.00;0.00;;;;;;;21.26;78.06;100516.16;4867266;29;20065;-72
2023/10/02 11:37:47;;;;;;;0.00;0.00;;;;;;;21.27;77.56;100532.53;4861697;29;20069;-72
2023/10/02 11:40:13;;;;;;;0.00;0.00;;;;;;;21.10;77.82;100519.53;4852824;29;20436;-72
2023/10/02 11:42:40;;;;;;;0.00;0.00;;;;;;;21.12;78.35;100532.28;4854440;29;20048;-72
2023/10/02 11:45:07;;;;;;;0.00;0.00;;;;;;;20.93;78.35;100536.28;4834858;29;20059;-72
2023/10/02 11:47:32;;;;;;;0.00;0.00;;;;;;;20.74;78.21;100529.16;4834722;29;20039;-72
2023/10/02 11:49:57;;;;;;;0.00;0.00;;;;;;;20.51;78.96;100538.84;4868925;29;21011;-72
2023/10/02 11:52:23;;;;;;;0.00;0.00;;;;;;;20.37;80.31;100531.53;4865951;29;20022;-71
2023/10/02 11:54:48;;;;;;;0.00;0.00;;;;;;;20.21;80.52;100533.19;4853508;29;20520;-71
2023/10/02 11:57:14;;;;;;;0.00;0.00;;;;;;;20.19;81.12;100527.16;4853958;29;20078;-71
2023/10/02 11:59:47;;;;;;;0.00;0.00;;;;;;;20.23;81.11;100519.78;4834177;29;20136;-72
2023/10/02 12:02:16;;;;;;;0.00;0.00;;;;;;;20.20;81.00;100520.47;4843183;29;20025;-71
2023/10/02 12:04:43;;;;;;;0.00;0.00;;;;;;;20.09;81.25;100508.06;4851635;29;20555;-72
2023/10/02 12:07:18;;;;;;;0.00;0.00;;;;;;;20.05;81.30;100502.34;4870620;29;20045;-71
2023/10/02 12:09:47;;;;;;;0.00;0.00;;;;;;;19.97;80.99;100501.19;4867528;29;20037;-72
2023/10/02 12:12:13;;;;;;;0.00;0.00;;;;;;;19.86;82.15;100505.47;4855189;29;20032;-71
2023/10/02 12:14:42;;;;;;;0.00;0.00;;;;;;;19.88;82.36;100503.19;4837029;29;20041;-72
2023/10/02 12:17:11;;;;;;;0.00;0.00;;;;;;;19.90;82.25;100506.44;4854064;29;20040;-72
2023/10/02 12:19:39;;;;;;;0.00;0.00;;;;;;;19.88;82.13;100503.19;4846960;29;20037;-72
2023/10/02 12:22:06;;;;;;;0.00;0.00;;;;;;;19.83;82.47;100517.19;4853992;29;20508;-72
2023/10/02 12:24:32;;;;;;;0.00;0.00;;;;;;;19.92;82.67;100493.06;4846835;29;21037;-71
2023/10/02 12:26:58;;;;;;;0.00;0.00;;;;;;;20.13;82.04;100464.63;4840893;29;20064;-72
2023/10/02 12:29:27;;;;;;;0.00;0.00;;;;;;;20.33;81.44;100469.47;4853066;29;20067;-71